Pagrindinis puslapis
METAR-TAF:

METAR-TAF

Oro uostai :

Pataja-Rayong, Tailandas

platuma: 12-38N, ilguma: 101-21E, Aukštis: 3 m

Dabartinis oras

Ataskaita buvo paskelbta 26 minutes, ne 08:00 UTC
Vėjas 13 kt iš Pietų
Temperatūra 30°C
Drėgmė 49%
Slėgis 1013 hPa
Matomumas: 7000 m
Mažai debesys ne aukštis 2500 ft

METAR: VTBU 230800Z 19013KT 7000 FEW025 30/18 Q1013 NOSIG

Laikas: 15:26 (08:26 UTC)

Prognozė

Ataskaita buvo paskelbta 3 valandos ir 26 minutes, ne 05:00 UTC
Prognozė galioja nuo 23 metu 06 UTC su 24 metu 06 UTC
Vėjas 8 kt iš Rytų/Šiaurės Rytų
Matomumas: 7000 m
Tapsmas
nuo 23 metu 06 UTC su 23 metu 07 UTC
Vėjas 10 kt iš Pietų/Pietryčių
Tapsmas
nuo 23 metu 11 UTC su 23 metu 13 UTC
Vėjas 5 kt iš Šiaurės
Matomumas: 5000 m
rūkana
Tapsmas
nuo 24 metu 01 UTC su 24 metu 03 UTC
Vėjas 10 kt iš Rytų/Šiaurės Rytų
Matomumas: 7000 m
Mažai debesys ne aukštis 2000 ft

TAF: VTBU 230500Z 2306/2406 06008KT 7000 NSC BECMG 2306/2307 15010KT BECMG 2311/2313 01005KT 5000 BR BECMG 2401/2403 07010KT 7000 NSW FEW020

Orai ataskaitas ir orų prognozės (METAR, TAF).

turimą stotys yra geltonos ir raudonos taškus žemėlapyje.

Perkelti pele per norėdami pamatyti stoties vardą.

Tada spustelėkite, norėdami matyti oro stebėjimo ir prognozės.

Norėdami pakeisti žemėlapį: spustelėkite ant žalios mygtukų su juodo kryžiaus žemyn,; žalią mygtuką su brūkšneliu, jei norite nutolinti; arba žalių rodyklių gretimoms žemėlapius.


METAR-TAF: